Terminal Aerodrome Forecast
Issued by NWS

Home | Current Version | Previous Version | Text Only | Print | Product List | Glossary On
Versions: 1 2 3 4 5 6 7 8 9 10 11 12 13 14 15 16 17 18 19 20 21 22 23 24 25 26 27 28 29 30 31 32 33
000
FTUS41 KBOX 040323 AAA
TAFFMH
TAF AMD
KFMH 040323Z 0403/0424 20004KT P6SM FEW300
     FM040600 VRB03KT P6SM FEW250
     FM041400 12006KT P6SM BKN250
     FM041800 11010KT P6SM OVC090
     FM042100 08011KT P6SM OVC025
     FM042300 05012KT 5SM -RA BR FEW012 OVC025=

USA.gov is the U.S. government's official web portal to all federal, state and local government web resources and services.